sensor_id;sensor_type;location;lat;lon;timestamp;temperature;humidity
13488;DHT22;6816;48.506;9.050;2022-12-07T00:01:46;6.80;99.90
13488;DHT22;6816;48.506;9.050;2022-12-07T00:04:49;6.70;99.90
13488;DHT22;6816;48.506;9.050;2022-12-07T00:07:49;6.70;99.90
13488;DHT22;6816;48.506;9.050;2022-12-07T00:10:50;6.70;99.90
13488;DHT22;6816;48.506;9.050;2022-12-07T00:13:53;6.70;99.90
13488;DHT22;6816;48.506;9.050;2022-12-07T00:16:54;6.70;99.90
13488;DHT22;6816;48.506;9.050;2022-12-07T00:19:55;6.70;99.90
13488;DHT22;6816;48.506;9.050;2022-12-07T00:22:55;6.70;99.90
13488;DHT22;6816;48.506;9.050;2022-12-07T00:26:02;6.70;99.90
13488;DHT22;6816;48.506;9.050;2022-12-07T00:29:18;6.70;99.90
13488;DHT22;6816;48.506;9.050;2022-12-07T00:32:18;6.70;99.90
13488;DHT22;6816;48.506;9.050;2022-12-07T00:35:19;6.70;99.90
13488;DHT22;6816;48.506;9.050;2022-12-07T00:38:20;6.80;99.90
13488;DHT22;6816;48.506;9.050;2022-12-07T00:41:22;6.80;99.90
13488;DHT22;6816;48.506;9.050;2022-12-07T00:44:23;6.70;99.90
13488;DHT22;6816;48.506;9.050;2022-12-07T00:47:24;6.70;99.90
13488;DHT22;6816;48.506;9.050;2022-12-07T00:50:24;6.70;99.90
13488;DHT22;6816;48.506;9.050;2022-12-07T00:53:25;6.70;99.90
13488;DHT22;6816;48.506;9.050;2022-12-07T00:56:28;6.70;99.90
13488;DHT22;6816;48.506;9.050;2022-12-07T00:59:28;6.70;99.90
13488;DHT22;6816;48.506;9.050;2022-12-07T01:02:29;6.70;99.90
13488;DHT22;6816;48.506;9.050;2022-12-07T01:05:30;6.80;99.90
13488;DHT22;6816;48.506;9.050;2022-12-07T01:08:30;6.70;99.90
13488;DHT22;6816;48.506;9.050;2022-12-07T01:11:31;6.70;99.90
13488;DHT22;6816;48.506;9.050;2022-12-07T01:14:32;6.70;99.90
13488;DHT22;6816;48.506;9.050;2022-12-07T01:17:33;6.70;99.90
13488;DHT22;6816;48.506;9.050;2022-12-07T01:20:34;6.70;99.90
13488;DHT22;6816;48.506;9.050;2022-12-07T01:23:35;6.60;99.90
13488;DHT22;6816;48.506;9.050;2022-12-07T01:26:36;6.70;99.90
13488;DHT22;6816;48.506;9.050;2022-12-07T01:29:37;6.60;99.90
13488;DHT22;6816;48.506;9.050;2022-12-07T01:32:37;6.70;99.90
13488;DHT22;6816;48.506;9.050;2022-12-07T01:35:38;6.60;99.90
13488;DHT22;6816;48.506;9.050;2022-12-07T01:38:39;6.60;99.90
13488;DHT22;6816;48.506;9.050;2022-12-07T01:41:41;6.60;99.90
13488;DHT22;6816;48.506;9.050;2022-12-07T01:48:22;6.60;99.90
13488;DHT22;6816;48.506;9.050;2022-12-07T01:51:25;6.70;99.90
13488;DHT22;6816;48.506;9.050;2022-12-07T01:54:26;6.60;99.90
13488;DHT22;6816;48.506;9.050;2022-12-07T01:57:28;6.60;99.90
13488;DHT22;6816;48.506;9.050;2022-12-07T02:00:29;6.60;99.90
13488;DHT22;6816;48.506;9.050;2022-12-07T02:03:37;6.60;99.90
13488;DHT22;6816;48.506;9.050;2022-12-07T02:06:38;6.60;99.90
13488;DHT22;6816;48.506;9.050;2022-12-07T02:09:39;6.60;99.90
13488;DHT22;6816;48.506;9.050;2022-12-07T02:12:40;6.50;99.90
13488;DHT22;6816;48.506;9.050;2022-12-07T02:16:06;6.60;99.90
13488;DHT22;6816;48.506;9.050;2022-12-07T02:22:54;6.60;99.90
13488;DHT22;6816;48.506;9.050;2022-12-07T02:36:27;6.50;99.90
13488;DHT22;6816;48.506;9.050;2022-12-07T02:39:16;6.50;99.90
13488;DHT22;6816;48.506;9.050;2022-12-07T02:42:28;6.50;99.90
13488;DHT22;6816;48.506;9.050;2022-12-07T02:45:31;6.50;99.90
13488;DHT22;6816;48.506;9.050;2022-12-07T02:48:34;6.60;99.90
13488;DHT22;6816;48.506;9.050;2022-12-07T02:51:46;6.50;99.90
13488;DHT22;6816;48.506;9.050;2022-12-07T02:54:46;6.50;99.90
13488;DHT22;6816;48.506;9.050;2022-12-07T03:01:15;6.50;99.90
13488;DHT22;6816;48.506;9.050;2022-12-07T03:11:35;6.50;99.90
13488;DHT22;6816;48.506;9.050;2022-12-07T03:14:52;6.40;99.90
13488;DHT22;6816;48.506;9.050;2022-12-07T03:17:57;6.40;99.90
13488;DHT22;6816;48.506;9.050;2022-12-07T03:21:03;6.50;99.90
13488;DHT22;6816;48.506;9.050;2022-12-07T03:24:12;6.30;99.90
13488;DHT22;6816;48.506;9.050;2022-12-07T03:27:21;6.30;99.90
13488;DHT22;6816;48.506;9.050;2022-12-07T03:33:42;6.10;99.90
13488;DHT22;6816;48.506;9.050;2022-12-07T03:37:11;6.20;99.90
13488;DHT22;6816;48.506;9.050;2022-12-07T03:40:28;6.10;99.90
13488;DHT22;6816;48.506;9.050;2022-12-07T03:43:31;6.00;99.90
13488;DHT22;6816;48.506;9.050;2022-12-07T03:50:15;5.90;99.90
13488;DHT22;6816;48.506;9.050;2022-12-07T03:53:25;5.80;99.90
13488;DHT22;6816;48.506;9.050;2022-12-07T03:56:30;5.90;99.90
13488;DHT22;6816;48.506;9.050;2022-12-07T03:59:31;5.70;99.90
13488;DHT22;6816;48.506;9.050;2022-12-07T04:02:33;5.80;99.90
13488;DHT22;6816;48.506;9.050;2022-12-07T04:05:33;5.70;99.90
13488;DHT22;6816;48.506;9.050;2022-12-07T04:08:34;5.60;99.90
13488;DHT22;6816;48.506;9.050;2022-12-07T04:11:35;5.60;99.90
13488;DHT22;6816;48.506;9.050;2022-12-07T04:14:36;5.70;99.90
13488;DHT22;6816;48.506;9.050;2022-12-07T04:17:36;5.50;99.90
13488;DHT22;6816;48.506;9.050;2022-12-07T04:20:37;5.50;99.90
13488;DHT22;6816;48.506;9.050;2022-12-07T04:23:37;5.50;99.90
13488;DHT22;6816;48.506;9.050;2022-12-07T04:26:38;5.40;99.90
13488;DHT22;6816;48.506;9.050;2022-12-07T04:29:39;5.40;99.90
13488;DHT22;6816;48.506;9.050;2022-12-07T04:32:40;5.30;99.90
13488;DHT22;6816;48.506;9.050;2022-12-07T04:35:42;5.40;99.90
13488;DHT22;6816;48.506;9.050;2022-12-07T04:38:43;5.30;99.90
13488;DHT22;6816;48.506;9.050;2022-12-07T04:41:43;5.40;99.90
13488;DHT22;6816;48.506;9.050;2022-12-07T04:44:44;5.30;99.90
13488;DHT22;6816;48.506;9.050;2022-12-07T04:47:45;5.30;99.90
13488;DHT22;6816;48.506;9.050;2022-12-07T04:50:48;5.20;99.90
13488;DHT22;6816;48.506;9.050;2022-12-07T04:53:50;5.30;99.90
13488;DHT22;6816;48.506;9.050;2022-12-07T04:56:51;5.20;99.90
13488;DHT22;6816;48.506;9.050;2022-12-07T04:59:51;5.10;99.90
13488;DHT22;6816;48.506;9.050;2022-12-07T05:02:52;5.30;99.90
13488;DHT22;6816;48.506;9.050;2022-12-07T05:05:52;5.20;99.90
13488;DHT22;6816;48.506;9.050;2022-12-07T05:08:53;5.30;99.90
13488;DHT22;6816;48.506;9.050;2022-12-07T05:11:54;5.20;99.90
13488;DHT22;6816;48.506;9.050;2022-12-07T05:14:54;5.20;99.90
13488;DHT22;6816;48.506;9.050;2022-12-07T05:17:55;5.20;99.90
13488;DHT22;6816;48.506;9.050;2022-12-07T05:20:55;5.00;99.90
13488;DHT22;6816;48.506;9.050;2022-12-07T05:23:56;5.00;99.90
13488;DHT22;6816;48.506;9.050;2022-12-07T05:26:57;5.00;99.90
13488;DHT22;6816;48.506;9.050;2022-12-07T05:29:57;5.00;99.90
13488;DHT22;6816;48.506;9.050;2022-12-07T05:32:58;5.00;99.90
13488;DHT22;6816;48.506;9.050;2022-12-07T05:35:59;5.00;99.90
13488;DHT22;6816;48.506;9.050;2022-12-07T05:39:05;4.80;99.90
13488;DHT22;6816;48.506;9.050;2022-12-07T05:42:06;4.70;99.90
13488;DHT22;6816;48.506;9.050;2022-12-07T05:45:13;4.60;99.90
13488;DHT22;6816;48.506;9.050;2022-12-07T05:48:13;4.60;99.90
13488;DHT22;6816;48.506;9.050;2022-12-07T05:51:14;4.50;99.90
13488;DHT22;6816;48.506;9.050;2022-12-07T05:54:14;4.50;99.90
13488;DHT22;6816;48.506;9.050;2022-12-07T05:57:15;4.30;99.90
13488;DHT22;6816;48.506;9.050;2022-12-07T06:00:16;4.30;99.90
13488;DHT22;6816;48.506;9.050;2022-12-07T06:03:17;4.10;99.90
13488;DHT22;6816;48.506;9.050;2022-12-07T06:06:17;4.10;99.90
13488;DHT22;6816;48.506;9.050;2022-12-07T06:09:19;4.00;99.90
13488;DHT22;6816;48.506;9.050;2022-12-07T06:12:20;3.90;99.90
13488;DHT22;6816;48.506;9.050;2022-12-07T06:15:36;3.80;99.90
13488;DHT22;6816;48.506;9.050;2022-12-07T06:18:37;3.80;99.90
13488;DHT22;6816;48.506;9.050;2022-12-07T06:21:37;3.70;99.90
13488;DHT22;6816;48.506;9.050;2022-12-07T06:24:39;3.50;99.90
13488;DHT22;6816;48.506;9.050;2022-12-07T06:27:40;3.60;99.90
13488;DHT22;6816;48.506;9.050;2022-12-07T06:30:40;3.60;99.90
13488;DHT22;6816;48.506;9.050;2022-12-07T06:33:41;3.40;99.90
13488;DHT22;6816;48.506;9.050;2022-12-07T06:36:42;3.30;99.90
13488;DHT22;6816;48.506;9.050;2022-12-07T06:39:43;3.30;99.90
13488;DHT22;6816;48.506;9.050;2022-12-07T06:42:44;3.20;99.90
13488;DHT22;6816;48.506;9.050;2022-12-07T06:45:44;3.30;99.90
13488;DHT22;6816;48.506;9.050;2022-12-07T06:48:45;3.10;99.90
13488;DHT22;6816;48.506;9.050;2022-12-07T06:51:46;3.00;99.90
13488;DHT22;6816;48.506;9.050;2022-12-07T06:54:46;3.10;99.90
13488;DHT22;6816;48.506;9.050;2022-12-07T06:57:47;2.90;99.90
13488;DHT22;6816;48.506;9.050;2022-12-07T07:00:49;3.10;99.90
13488;DHT22;6816;48.506;9.050;2022-12-07T07:03:52;2.90;99.90
13488;DHT22;6816;48.506;9.050;2022-12-07T07:06:53;3.00;99.90
13488;DHT22;6816;48.506;9.050;2022-12-07T07:09:53;3.00;99.90
13488;DHT22;6816;48.506;9.050;2022-12-07T07:12:54;3.00;99.90
13488;DHT22;6816;48.506;9.050;2022-12-07T07:15:55;3.00;99.90
13488;DHT22;6816;48.506;9.050;2022-12-07T07:18:55;3.10;99.90
13488;DHT22;6816;48.506;9.050;2022-12-07T07:21:56;3.10;99.90
13488;DHT22;6816;48.506;9.050;2022-12-07T07:24:57;3.20;99.90
13488;DHT22;6816;48.506;9.050;2022-12-07T07:27:57;3.20;99.90
13488;DHT22;6816;48.506;9.050;2022-12-07T07:30:58;3.40;99.90
13488;DHT22;6816;48.506;9.050;2022-12-07T07:33:59;3.40;99.90
13488;DHT22;6816;48.506;9.050;2022-12-07T07:36:59;3.30;99.90
13488;DHT22;6816;48.506;9.050;2022-12-07T07:40:00;3.40;99.90
13488;DHT22;6816;48.506;9.050;2022-12-07T07:43:00;3.50;99.90
13488;DHT22;6816;48.506;9.050;2022-12-07T07:46:01;3.50;99.90
13488;DHT22;6816;48.506;9.050;2022-12-07T07:49:02;3.50;99.90
13488;DHT22;6816;48.506;9.050;2022-12-07T07:52:03;3.60;99.90
13488;DHT22;6816;48.506;9.050;2022-12-07T07:55:04;3.60;99.90
13488;DHT22;6816;48.506;9.050;2022-12-07T07:58:05;3.70;99.90
13488;DHT22;6816;48.506;9.050;2022-12-07T08:01:06;3.70;99.90
13488;DHT22;6816;48.506;9.050;2022-12-07T08:04:07;3.80;99.90
13488;DHT22;6816;48.506;9.050;2022-12-07T08:07:08;3.80;99.90
13488;DHT22;6816;48.506;9.050;2022-12-07T08:10:11;3.90;99.90
13488;DHT22;6816;48.506;9.050;2022-12-07T08:13:13;4.00;99.90
13488;DHT22;6816;48.506;9.050;2022-12-07T08:16:15;4.00;99.90
13488;DHT22;6816;48.506;9.050;2022-12-07T08:19:16;4.10;99.90
13488;DHT22;6816;48.506;9.050;2022-12-07T08:22:16;4.20;99.90
13488;DHT22;6816;48.506;9.050;2022-12-07T08:25:18;4.40;99.90
13488;DHT22;6816;48.506;9.050;2022-12-07T08:28:18;4.40;99.90
13488;DHT22;6816;48.506;9.050;2022-12-07T08:31:19;4.50;99.90
13488;DHT22;6816;48.506;9.050;2022-12-07T08:34:20;4.50;99.90
13488;DHT22;6816;48.506;9.050;2022-12-07T08:37:20;4.70;99.90
13488;DHT22;6816;48.506;9.050;2022-12-07T08:40:21;4.70;99.90
13488;DHT22;6816;48.506;9.050;2022-12-07T08:43:22;4.80;99.90
13488;DHT22;6816;48.506;9.050;2022-12-07T08:46:33;4.90;99.90
13488;DHT22;6816;48.506;9.050;2022-12-07T08:49:39;4.90;99.90
13488;DHT22;6816;48.506;9.050;2022-12-07T08:52:42;5.00;99.90
13488;DHT22;6816;48.506;9.050;2022-12-07T08:55:44;5.20;99.90
13488;DHT22;6816;48.506;9.050;2022-12-07T08:58:45;5.20;99.90
13488;DHT22;6816;48.506;9.050;2022-12-07T09:01:46;5.30;99.90
13488;DHT22;6816;48.506;9.050;2022-12-07T09:04:46;5.40;99.90
13488;DHT22;6816;48.506;9.050;2022-12-07T09:07:50;5.40;99.90
13488;DHT22;6816;48.506;9.050;2022-12-07T09:10:51;5.50;99.90
13488;DHT22;6816;48.506;9.050;2022-12-07T09:13:52;5.60;99.90
13488;DHT22;6816;48.506;9.050;2022-12-07T09:16:52;5.70;99.90
13488;DHT22;6816;48.506;9.050;2022-12-07T09:19:53;5.90;99.90
13488;DHT22;6816;48.506;9.050;2022-12-07T09:22:53;6.00;99.90
13488;DHT22;6816;48.506;9.050;2022-12-07T09:25:54;6.00;99.90
13488;DHT22;6816;48.506;9.050;2022-12-07T09:28:55;6.10;99.90
13488;DHT22;6816;48.506;9.050;2022-12-07T09:31:55;6.10;99.90
13488;DHT22;6816;48.506;9.050;2022-12-07T09:34:56;6.20;99.90
13488;DHT22;6816;48.506;9.050;2022-12-07T09:37:56;6.30;99.90
13488;DHT22;6816;48.506;9.050;2022-12-07T09:40:57;6.40;99.90
13488;DHT22;6816;48.506;9.050;2022-12-07T09:44:06;6.50;99.90
13488;DHT22;6816;48.506;9.050;2022-12-07T09:47:09;6.60;99.90
13488;DHT22;6816;48.506;9.050;2022-12-07T09:50:15;6.70;99.90
13488;DHT22;6816;48.506;9.050;2022-12-07T09:53:33;6.70;99.90
13488;DHT22;6816;48.506;9.050;2022-12-07T09:56:34;6.80;99.90
13488;DHT22;6816;48.506;9.050;2022-12-07T09:59:35;6.90;99.90
13488;DHT22;6816;48.506;9.050;2022-12-07T10:02:42;6.90;99.90
13488;DHT22;6816;48.506;9.050;2022-12-07T10:05:46;7.00;99.90
13488;DHT22;6816;48.506;9.050;2022-12-07T10:08:48;7.20;99.90
13488;DHT22;6816;48.506;9.050;2022-12-07T10:12:08;7.20;99.90
13488;DHT22;6816;48.506;9.050;2022-12-07T10:15:09;7.20;99.90
13488;DHT22;6816;48.506;9.050;2022-12-07T10:21:26;7.40;99.90
13488;DHT22;6816;48.506;9.050;2022-12-07T10:24:26;7.40;99.90
13488;DHT22;6816;48.506;9.050;2022-12-07T10:27:32;7.40;99.90
13488;DHT22;6816;48.506;9.050;2022-12-07T10:30:33;7.50;99.90
13488;DHT22;6816;48.506;9.050;2022-12-07T10:33:48;7.70;99.90
13488;DHT22;6816;48.506;9.050;2022-12-07T10:36:50;7.70;99.90
13488;DHT22;6816;48.506;9.050;2022-12-07T10:39:56;7.70;99.90
13488;DHT22;6816;48.506;9.050;2022-12-07T10:43:02;7.80;99.90
13488;DHT22;6816;48.506;9.050;2022-12-07T11:14:56;8.30;99.90
13488;DHT22;6816;48.506;9.050;2022-12-07T11:24:18;8.40;99.90
13488;DHT22;6816;48.506;9.050;2022-12-07T11:30:46;8.50;99.90
13488;DHT22;6816;48.506;9.050;2022-12-07T11:34:08;8.60;99.90
13488;DHT22;6816;48.506;9.050;2022-12-07T11:37:15;8.60;99.90
13488;DHT22;6816;48.506;9.050;2022-12-07T11:40:20;8.60;99.90
13488;DHT22;6816;48.506;9.050;2022-12-07T11:43:27;8.60;99.90
13488;DHT22;6816;48.506;9.050;2022-12-07T11:46:56;8.70;99.90
13488;DHT22;6816;48.506;9.050;2022-12-07T11:50:34;8.70;99.90
13488;DHT22;6816;48.506;9.050;2022-12-07T11:53:49;8.70;99.90
13488;DHT22;6816;48.506;9.050;2022-12-07T11:56:51;8.80;99.90
13488;DHT22;6816;48.506;9.050;2022-12-07T12:00:01;8.80;99.90
13488;DHT22;6816;48.506;9.050;2022-12-07T12:03:17;8.90;99.90
13488;DHT22;6816;48.506;9.050;2022-12-07T12:06:21;8.90;99.90
13488;DHT22;6816;48.506;9.050;2022-12-07T12:09:35;8.90;99.90
13488;DHT22;6816;48.506;9.050;2022-12-07T12:20:01;9.00;99.90
13488;DHT22;6816;48.506;9.050;2022-12-07T12:23:24;9.00;99.90
13488;DHT22;6816;48.506;9.050;2022-12-07T12:26:29;9.00;99.90
13488;DHT22;6816;48.506;9.050;2022-12-07T12:29:37;9.00;99.90
13488;DHT22;6816;48.506;9.050;2022-12-07T12:32:40;9.00;99.90
13488;DHT22;6816;48.506;9.050;2022-12-07T12:35:42;9.00;99.90
13488;DHT22;6816;48.506;9.050;2022-12-07T12:42:20;9.00;99.90
13488;DHT22;6816;48.506;9.050;2022-12-07T12:45:30;9.00;99.90
13488;DHT22;6816;48.506;9.050;2022-12-07T12:48:37;9.00;99.90
13488;DHT22;6816;48.506;9.050;2022-12-07T12:51:39;9.00;99.90
13488;DHT22;6816;48.506;9.050;2022-12-07T13:01:40;9.00;99.90
13488;DHT22;6816;48.506;9.050;2022-12-07T13:08:18;9.00;99.90
13488;DHT22;6816;48.506;9.050;2022-12-07T13:20:50;8.90;99.90
13488;DHT22;6816;48.506;9.050;2022-12-07T13:24:00;9.00;99.90
13488;DHT22;6816;48.506;9.050;2022-12-07T13:27:01;8.90;99.90
13488;DHT22;6816;48.506;9.050;2022-12-07T13:30:03;8.90;99.90
13488;DHT22;6816;48.506;9.050;2022-12-07T13:33:09;8.90;99.90
13488;DHT22;6816;48.506;9.050;2022-12-07T13:36:48;8.90;99.90
13488;DHT22;6816;48.506;9.050;2022-12-07T13:39:51;9.00;99.80
13488;DHT22;6816;48.506;9.050;2022-12-07T13:43:02;8.90;99.90
13488;DHT22;6816;48.506;9.050;2022-12-07T13:46:07;8.90;99.90
13488;DHT22;6816;48.506;9.050;2022-12-07T13:49:24;8.90;99.90
13488;DHT22;6816;48.506;9.050;2022-12-07T13:52:27;8.80;99.90
13488;DHT22;6816;48.506;9.050;2022-12-07T13:55:29;8.80;99.90
13488;DHT22;6816;48.506;9.050;2022-12-07T13:58:31;8.70;99.90
13488;DHT22;6816;48.506;9.050;2022-12-07T14:01:33;8.70;99.90
13488;DHT22;6816;48.506;9.050;2022-12-07T14:04:37;8.80;99.90
13488;DHT22;6816;48.506;9.050;2022-12-07T14:10:59;8.70;99.80
13488;DHT22;6816;48.506;9.050;2022-12-07T14:14:02;8.70;99.90
13488;DHT22;6816;48.506;9.050;2022-12-07T14:17:18;8.60;99.90
13488;DHT22;6816;48.506;9.050;2022-12-07T14:20:39;8.60;99.90
13488;DHT22;6816;48.506;9.050;2022-12-07T14:23:41;8.60;99.80
13488;DHT22;6816;48.506;9.050;2022-12-07T14:26:42;8.50;99.90
13488;DHT22;6816;48.506;9.050;2022-12-07T14:29:43;8.50;99.90
13488;DHT22;6816;48.506;9.050;2022-12-07T14:32:44;8.50;99.90
13488;DHT22;6816;48.506;9.050;2022-12-07T14:35:48;8.50;99.90
13488;DHT22;6816;48.506;9.050;2022-12-07T14:38:49;8.40;99.90
13488;DHT22;6816;48.506;9.050;2022-12-07T14:41:50;8.50;99.90
13488;DHT22;6816;48.506;9.050;2022-12-07T14:44:50;8.40;99.90
13488;DHT22;6816;48.506;9.050;2022-12-07T14:47:51;8.40;99.90
13488;DHT22;6816;48.506;9.050;2022-12-07T14:50:53;8.40;99.90
13488;DHT22;6816;48.506;9.050;2022-12-07T14:53:53;8.30;99.90
13488;DHT22;6816;48.506;9.050;2022-12-07T14:56:54;8.30;99.90
13488;DHT22;6816;48.506;9.050;2022-12-07T14:59:55;8.30;99.90
13488;DHT22;6816;48.506;9.050;2022-12-07T15:02:56;8.20;99.90
13488;DHT22;6816;48.506;9.050;2022-12-07T15:05:57;8.20;99.90
13488;DHT22;6816;48.506;9.050;2022-12-07T15:08:57;8.30;99.90
13488;DHT22;6816;48.506;9.050;2022-12-07T15:11:58;8.20;99.90
13488;DHT22;6816;48.506;9.050;2022-12-07T15:14:59;8.10;99.90
13488;DHT22;6816;48.506;9.050;2022-12-07T15:18:01;8.20;99.90
13488;DHT22;6816;48.506;9.050;2022-12-07T15:21:02;8.00;99.90
13488;DHT22;6816;48.506;9.050;2022-12-07T15:24:02;8.00;99.90
13488;DHT22;6816;48.506;9.050;2022-12-07T15:27:03;7.90;99.90
13488;DHT22;6816;48.506;9.050;2022-12-07T15:30:04;7.90;99.90
13488;DHT22;6816;48.506;9.050;2022-12-07T15:33:05;7.90;99.90
13488;DHT22;6816;48.506;9.050;2022-12-07T15:36:06;7.80;99.90
13488;DHT22;6816;48.506;9.050;2022-12-07T15:39:09;7.80;99.90
13488;DHT22;6816;48.506;9.050;2022-12-07T15:42:09;7.70;99.90
13488;DHT22;6816;48.506;9.050;2022-12-07T15:45:10;7.70;99.90
13488;DHT22;6816;48.506;9.050;2022-12-07T15:48:11;7.60;99.90
13488;DHT22;6816;48.506;9.050;2022-12-07T15:51:12;7.60;99.90
13488;DHT22;6816;48.506;9.050;2022-12-07T15:54:20;7.60;99.90
13488;DHT22;6816;48.506;9.050;2022-12-07T15:57:21;7.50;99.90
13488;DHT22;6816;48.506;9.050;2022-12-07T16:00:22;7.50;99.90
13488;DHT22;6816;48.506;9.050;2022-12-07T16:03:22;7.60;99.90
13488;DHT22;6816;48.506;9.050;2022-12-07T16:06:23;7.50;99.90
13488;DHT22;6816;48.506;9.050;2022-12-07T16:09:23;7.40;99.90
13488;DHT22;6816;48.506;9.050;2022-12-07T16:12:24;7.50;99.90
13488;DHT22;6816;48.506;9.050;2022-12-07T16:15:25;7.40;99.90
13488;DHT22;6816;48.506;9.050;2022-12-07T16:18:27;7.50;99.90
13488;DHT22;6816;48.506;9.050;2022-12-07T16:21:27;7.50;99.90
13488;DHT22;6816;48.506;9.050;2022-12-07T16:24:28;7.40;99.90
13488;DHT22;6816;48.506;9.050;2022-12-07T16:27:29;7.30;99.90
13488;DHT22;6816;48.506;9.050;2022-12-07T16:30:30;7.30;99.90
13488;DHT22;6816;48.506;9.050;2022-12-07T16:33:30;7.30;99.90
13488;DHT22;6816;48.506;9.050;2022-12-07T16:36:31;7.20;99.90
13488;DHT22;6816;48.506;9.050;2022-12-07T16:39:32;7.30;99.90
13488;DHT22;6816;48.506;9.050;2022-12-07T16:42:34;7.20;99.90
13488;DHT22;6816;48.506;9.050;2022-12-07T16:45:36;7.20;99.90
13488;DHT22;6816;48.506;9.050;2022-12-07T16:48:38;7.20;99.90
13488;DHT22;6816;48.506;9.050;2022-12-07T16:51:40;7.20;99.90
13488;DHT22;6816;48.506;9.050;2022-12-07T16:54:41;7.10;99.90
13488;DHT22;6816;48.506;9.050;2022-12-07T16:57:42;7.00;99.90
13488;DHT22;6816;48.506;9.050;2022-12-07T17:00:44;7.00;99.90
13488;DHT22;6816;48.506;9.050;2022-12-07T17:03:45;7.00;99.90
13488;DHT22;6816;48.506;9.050;2022-12-07T17:06:46;6.90;99.90
13488;DHT22;6816;48.506;9.050;2022-12-07T17:09:46;7.00;99.90
13488;DHT22;6816;48.506;9.050;2022-12-07T17:12:48;6.90;99.90
13488;DHT22;6816;48.506;9.050;2022-12-07T17:16:02;6.90;99.90
13488;DHT22;6816;48.506;9.050;2022-12-07T17:19:07;6.80;99.90
13488;DHT22;6816;48.506;9.050;2022-12-07T17:22:08;6.80;99.90
13488;DHT22;6816;48.506;9.050;2022-12-07T17:25:12;6.90;99.90
13488;DHT22;6816;48.506;9.050;2022-12-07T17:28:13;6.80;99.90
13488;DHT22;6816;48.506;9.050;2022-12-07T17:31:16;6.90;99.90
13488;DHT22;6816;48.506;9.050;2022-12-07T17:34:17;6.80;99.90
13488;DHT22;6816;48.506;9.050;2022-12-07T17:37:18;6.80;99.90
13488;DHT22;6816;48.506;9.050;2022-12-07T17:40:19;6.90;99.90
13488;DHT22;6816;48.506;9.050;2022-12-07T17:43:19;6.70;99.90
13488;DHT22;6816;48.506;9.050;2022-12-07T17:46:20;6.70;99.90
13488;DHT22;6816;48.506;9.050;2022-12-07T17:49:21;6.90;99.90
13488;DHT22;6816;48.506;9.050;2022-12-07T17:52:22;6.70;99.90
13488;DHT22;6816;48.506;9.050;2022-12-07T17:55:41;6.60;99.90
13488;DHT22;6816;48.506;9.050;2022-12-07T17:58:42;6.70;99.90
13488;DHT22;6816;48.506;9.050;2022-12-07T18:01:43;6.50;99.90
13488;DHT22;6816;48.506;9.050;2022-12-07T18:04:43;6.40;99.90
13488;DHT22;6816;48.506;9.050;2022-12-07T18:07:46;6.30;99.90
13488;DHT22;6816;48.506;9.050;2022-12-07T18:10:47;6.30;99.90
13488;DHT22;6816;48.506;9.050;2022-12-07T18:13:48;6.30;99.90
13488;DHT22;6816;48.506;9.050;2022-12-07T18:16:48;6.20;99.90
13488;DHT22;6816;48.506;9.050;2022-12-07T18:19:49;6.10;99.90
13488;DHT22;6816;48.506;9.050;2022-12-07T18:22:50;6.00;99.90
13488;DHT22;6816;48.506;9.050;2022-12-07T18:25:50;5.90;99.90
13488;DHT22;6816;48.506;9.050;2022-12-07T18:28:52;5.90;99.90
13488;DHT22;6816;48.506;9.050;2022-12-07T18:31:52;5.80;99.90
13488;DHT22;6816;48.506;9.050;2022-12-07T18:34:53;6.00;99.90
13488;DHT22;6816;48.506;9.050;2022-12-07T18:37:53;5.90;99.90
13488;DHT22;6816;48.506;9.050;2022-12-07T18:40:54;5.80;99.90
13488;DHT22;6816;48.506;9.050;2022-12-07T18:43:55;5.70;99.90
13488;DHT22;6816;48.506;9.050;2022-12-07T18:46:56;5.60;99.90
13488;DHT22;6816;48.506;9.050;2022-12-07T18:49:56;5.60;99.90
13488;DHT22;6816;48.506;9.050;2022-12-07T18:53:01;5.60;99.90
13488;DHT22;6816;48.506;9.050;2022-12-07T18:56:04;5.60;99.90
13488;DHT22;6816;48.506;9.050;2022-12-07T18:59:05;5.60;99.90
13488;DHT22;6816;48.506;9.050;2022-12-07T19:02:24;5.70;99.90
13488;DHT22;6816;48.506;9.050;2022-12-07T19:05:26;5.60;99.90
13488;DHT22;6816;48.506;9.050;2022-12-07T19:08:27;5.60;99.90
13488;DHT22;6816;48.506;9.050;2022-12-07T19:11:30;5.60;99.90
13488;DHT22;6816;48.506;9.050;2022-12-07T19:14:49;5.60;99.90
13488;DHT22;6816;48.506;9.050;2022-12-07T19:17:50;5.70;99.90
13488;DHT22;6816;48.506;9.050;2022-12-07T19:20:51;5.60;99.90
13488;DHT22;6816;48.506;9.050;2022-12-07T19:23:51;5.70;99.90
13488;DHT22;6816;48.506;9.050;2022-12-07T19:26:52;5.60;99.90
13488;DHT22;6816;48.506;9.050;2022-12-07T19:29:53;5.60;99.90
13488;DHT22;6816;48.506;9.050;2022-12-07T19:32:53;5.60;99.90
13488;DHT22;6816;48.506;9.050;2022-12-07T19:35:54;5.60;99.90
13488;DHT22;6816;48.506;9.050;2022-12-07T19:38:55;5.60;99.90
13488;DHT22;6816;48.506;9.050;2022-12-07T19:41:56;5.60;99.90
13488;DHT22;6816;48.506;9.050;2022-12-07T19:44:56;5.60;99.90
13488;DHT22;6816;48.506;9.050;2022-12-07T19:47:57;5.70;99.90
13488;DHT22;6816;48.506;9.050;2022-12-07T19:51:02;5.60;99.90
13488;DHT22;6816;48.506;9.050;2022-12-07T19:54:03;5.50;99.90
13488;DHT22;6816;48.506;9.050;2022-12-07T19:57:05;5.50;99.90
13488;DHT22;6816;48.506;9.050;2022-12-07T20:00:07;5.50;99.90
13488;DHT22;6816;48.506;9.050;2022-12-07T20:03:08;5.50;99.90
13488;DHT22;6816;48.506;9.050;2022-12-07T20:06:11;5.40;99.90
13488;DHT22;6816;48.506;9.050;2022-12-07T20:09:13;5.40;99.90
13488;DHT22;6816;48.506;9.050;2022-12-07T20:12:13;5.40;99.90
13488;DHT22;6816;48.506;9.050;2022-12-07T20:15:36;5.40;99.90
13488;DHT22;6816;48.506;9.050;2022-12-07T20:18:37;5.30;99.90
13488;DHT22;6816;48.506;9.050;2022-12-07T20:21:38;5.30;99.90
13488;DHT22;6816;48.506;9.050;2022-12-07T20:24:39;5.40;99.90
13488;DHT22;6816;48.506;9.050;2022-12-07T20:27:40;5.30;99.90
13488;DHT22;6816;48.506;9.050;2022-12-07T20:30:51;5.30;99.90
13488;DHT22;6816;48.506;9.050;2022-12-07T20:33:52;5.40;99.90
13488;DHT22;6816;48.506;9.050;2022-12-07T20:36:53;5.20;99.90
13488;DHT22;6816;48.506;9.050;2022-12-07T20:39:54;5.20;99.90
13488;DHT22;6816;48.506;9.050;2022-12-07T20:42:55;5.20;99.90
13488;DHT22;6816;48.506;9.050;2022-12-07T20:45:56;5.10;99.90
13488;DHT22;6816;48.506;9.050;2022-12-07T20:48:57;5.10;99.90
13488;DHT22;6816;48.506;9.050;2022-12-07T20:52:00;5.10;99.90
13488;DHT22;6816;48.506;9.050;2022-12-07T20:55:01;5.00;99.90
13488;DHT22;6816;48.506;9.050;2022-12-07T20:58:02;5.00;99.90
13488;DHT22;6816;48.506;9.050;2022-12-07T21:01:02;5.00;99.90
13488;DHT22;6816;48.506;9.050;2022-12-07T21:04:04;5.00;99.90
13488;DHT22;6816;48.506;9.050;2022-12-07T21:07:04;4.90;99.90
13488;DHT22;6816;48.506;9.050;2022-12-07T21:10:05;5.00;99.90
13488;DHT22;6816;48.506;9.050;2022-12-07T21:13:06;4.90;99.90
13488;DHT22;6816;48.506;9.050;2022-12-07T21:16:12;4.90;99.90
13488;DHT22;6816;48.506;9.050;2022-12-07T21:19:13;4.90;99.90
13488;DHT22;6816;48.506;9.050;2022-12-07T21:22:14;4.90;99.90
13488;DHT22;6816;48.506;9.050;2022-12-07T21:25:15;5.00;99.90
13488;DHT22;6816;48.506;9.050;2022-12-07T21:28:15;5.00;99.90
13488;DHT22;6816;48.506;9.050;2022-12-07T21:31:17;4.90;99.90
13488;DHT22;6816;48.506;9.050;2022-12-07T21:34:18;4.90;99.90
13488;DHT22;6816;48.506;9.050;2022-12-07T21:37:18;4.90;99.90
13488;DHT22;6816;48.506;9.050;2022-12-07T21:40:19;4.80;99.90
13488;DHT22;6816;48.506;9.050;2022-12-07T21:43:19;4.80;99.90
13488;DHT22;6816;48.506;9.050;2022-12-07T21:46:21;4.80;99.90